Time;durP1;ratioP1;P1;durP2;ratioP2;P2;SDS_P1;SDS_P2;PMS_P1;PMS_P2;Temp;Humidity;BMP_temperature;BMP_pressure;BME280_temperature;BME280_humidity;BME280_pressure;Samples;Min_cycle;Max_cycle;Signal;HPM_P1;HPM_P2
2022/03/09 00:02:07;;;;;;;;;14.00;13.75;;;;;;;;5098504;27;45816;-74
2022/03/09 00:04:33;;;;;;;;;18.50;16.00;;;;;;;;5092674;27;45348;-73
2022/03/09 00:06:58;;;;;;;;;16.25;13.00;;;;;;;;5087452;27;46549;-73
2022/03/09 00:09:23;;;;;;;;;15.00;12.00;;;;;;;;5098575;27;45535;-73
2022/03/09 00:11:48;;;;;;;;;13.75;12.75;;;;;;;;5099545;27;45248;-73
2022/03/09 00:14:13;;;;;;;;;18.50;16.50;;;;;;;;5098874;27;45345;-73
2022/03/09 00:16:39;;;;;;;;;13.00;13.00;;;;;;;;5098714;27;46122;-72
2022/03/09 00:19:04;;;;;;;;;16.75;15.00;;;;;;;;5098746;27;45615;-75
2022/03/09 00:21:29;;;;;;;;;16.00;14.00;;;;;;;;5107419;27;45488;-75
2022/03/09 00:23:54;;;;;;;;;16.25;14.75;;;;;;;;5098798;27;45251;-75
2022/03/09 00:26:19;;;;;;;;;15.00;13.50;;;;;;;;5101227;27;45290;-74
2022/03/09 00:28:45;;;;;;;;;14.25;12.75;;;;;;;;5101226;27;45550;-73
2022/03/09 00:31:10;;;;;;;;;16.25;15.25;;;;;;;;5098882;27;45247;-71
2022/03/09 00:33:35;;;;;;;;;14.25;14.25;;;;;;;;5096975;27;45170;-73
2022/03/09 00:36:01;;;;;;;;;25.75;21.00;;;;;;;;5097938;27;47204;-73
2022/03/09 00:38:26;;;;;;;;;23.75;20.00;;;;;;;;5103827;27;45516;-72
2022/03/09 00:40:51;;;;;;;;;20.00;15.75;;;;;;;;5087132;27;45257;-72
2022/03/09 00:43:17;;;;;;;;;21.50;17.25;;;;;;;;5102277;27;45329;-71
2022/03/09 00:45:42;;;;;;;;;17.00;16.00;;;;;;;;5106334;27;46077;-72
2022/03/09 00:48:08;;;;;;;;;13.50;12.50;;;;;;;;5101549;27;45536;-72
2022/03/09 00:50:33;;;;;;;;;19.50;16.50;;;;;;;;5106982;27;45328;-73
2022/03/09 00:52:58;;;;;;;;;14.75;14.75;;;;;;;;5106730;27;45365;-74
2022/03/09 00:55:23;;;;;;;;;18.25;17.00;;;;;;;;5101347;27;45429;-74
2022/03/09 00:57:49;;;;;;;;;15.25;14.75;;;;;;;;5100094;27;45546;-73
2022/03/09 01:00:14;;;;;;;;;19.75;15.75;;;;;;;;5097345;27;45508;-73
2022/03/09 01:02:43;;;;;;;;;18.00;15.00;;;;;;;;5098179;27;45427;-72
2022/03/09 01:05:09;;;;;;;;;20.50;17.75;;;;;;;;5097384;27;46983;-72
2022/03/09 01:07:34;;;;;;;;;13.00;12.25;;;;;;;;5096882;27;45648;-73
2022/03/09 01:09:59;;;;;;;;;17.25;17.00;;;;;;;;5098023;27;45475;-73
2022/03/09 01:12:24;;;;;;;;;16.00;14.50;;;;;;;;5097443;27;45436;-73
2022/03/09 01:14:49;;;;;;;;;19.25;16.75;;;;;;;;5098826;27;47435;-73
2022/03/09 01:17:15;;;;;;;;;20.00;18.00;;;;;;;;5085758;27;45463;-73
2022/03/09 01:19:40;;;;;;;;;19.25;19.25;;;;;;;;5092651;27;45377;-73
2022/03/09 01:22:05;;;;;;;;;19.50;16.75;;;;;;;;5097179;27;45322;-73
2022/03/09 01:24:30;;;;;;;;;24.25;18.00;;;;;;;;5097529;27;47029;-73
2022/03/09 01:26:56;;;;;;;;;20.50;16.00;;;;;;;;5097619;27;45661;-73
2022/03/09 01:29:21;;;;;;;;;22.25;19.75;;;;;;;;5098024;27;45385;-73
2022/03/09 01:31:46;;;;;;;;;21.50;17.75;;;;;;;;5096590;27;45313;-73
2022/03/09 01:34:11;;;;;;;;;18.75;18.75;;;;;;;;5097522;27;46118;-73
2022/03/09 01:36:37;;;;;;;;;21.75;19.25;;;;;;;;5097319;27;45396;-73
2022/03/09 01:39:02;;;;;;;;;18.50;18.25;;;;;;;;5097444;27;45404;-73
2022/03/09 01:41:27;;;;;;;;;20.25;18.75;;;;;;;;5098309;27;45308;-73
2022/03/09 01:44:06;;;;;;;;;19.00;16.50;;;;;;;;5096548;27;45677;-71
2022/03/09 01:46:31;;;;;;;;;20.25;18.50;;;;;;;;5096714;27;45473;-73
2022/03/09 01:48:56;;;;;;;;;20.75;18.25;;;;;;;;5097626;27;45486;-72
2022/03/09 01:51:23;;;;;;;;;18.00;16.00;;;;;;;;5097176;27;45486;-73
2022/03/09 01:53:49;;;;;;;;;20.50;18.00;;;;;;;;5097386;27;47059;-73
2022/03/09 01:56:14;;;;;;;;;16.75;16.75;;;;;;;;5097172;27;45576;-73
2022/03/09 01:58:40;;;;;;;;;16.75;16.75;;;;;;;;5096812;27;45395;-73
2022/03/09 02:01:05;;;;;;;;;18.00;18.00;;;;;;;;5095780;27;45277;-73
2022/03/09 02:03:30;;;;;;;;;17.50;17.00;;;;;;;;5097287;27;45529;-72
2022/03/09 02:05:55;;;;;;;;;23.75;19.50;;;;;;;;5097850;27;45424;-73
2022/03/09 02:11:04;;;;;;;;;20.50;18.25;;;;;;;;5094503;27;45447;-73
2022/03/09 02:13:29;;;;;;;;;21.75;19.25;;;;;;;;5096288;27;46004;-73
2022/03/09 02:15:55;;;;;;;;;19.00;16.75;;;;;;;;5096900;27;45443;-73
2022/03/09 02:18:20;;;;;;;;;18.75;16.50;;;;;;;;5095921;27;45287;-73
2022/03/09 02:20:48;;;;;;;;;21.00;20.00;;;;;;;;5097583;27;45320;-73
2022/03/09 02:23:13;;;;;;;;;18.50;17.00;;;;;;;;5096624;27;47249;-73
2022/03/09 02:25:39;;;;;;;;;20.00;18.50;;;;;;;;5096393;27;45417;-73
2022/03/09 02:28:04;;;;;;;;;16.00;15.50;;;;;;;;5096665;27;45470;-73
2022/03/09 02:30:29;;;;;;;;;18.25;17.00;;;;;;;;5097108;27;45287;-72
2022/03/09 02:32:54;;;;;;;;;20.50;19.25;;;;;;;;5097308;27;45460;-73
2022/03/09 02:35:20;;;;;;;;;17.50;17.00;;;;;;;;5096818;27;45388;-73
2022/03/09 02:37:45;;;;;;;;;17.25;16.50;;;;;;;;5078057;27;45402;-73
2022/03/09 02:40:12;;;;;;;;;19.25;18.50;;;;;;;;5096061;27;45563;-73
2022/03/09 02:42:37;;;;;;;;;20.50;17.25;;;;;;;;5096349;27;50640;-73
2022/03/09 02:45:03;;;;;;;;;17.75;17.50;;;;;;;;5079291;27;45680;-73
2022/03/09 02:47:28;;;;;;;;;20.50;18.00;;;;;;;;5092320;27;45415;-73
2022/03/09 02:49:54;;;;;;;;;20.50;19.00;;;;;;;;5096355;27;45554;-73
2022/03/09 02:52:19;;;;;;;;;17.50;16.25;;;;;;;;5095934;27;45400;-73
2022/03/09 02:54:44;;;;;;;;;17.00;17.00;;;;;;;;5095602;27;45569;-73
2022/03/09 02:57:09;;;;;;;;;16.50;16.50;;;;;;;;5096291;27;45997;-73
2022/03/09 02:59:35;;;;;;;;;22.00;20.50;;;;;;;;5096801;27;45211;-73
2022/03/09 03:02:00;;;;;;;;;17.00;16.50;;;;;;;;5095761;27;47135;-73
2022/03/09 03:04:25;;;;;;;;;20.00;19.50;;;;;;;;5095824;27;45563;-73
2022/03/09 03:06:51;;;;;;;;;21.25;17.50;;;;;;;;5096242;27;45425;-73
2022/03/09 03:09:16;;;;;;;;;21.25;19.25;;;;;;;;5096169;27;45936;-73
2022/03/09 03:11:41;;;;;;;;;24.25;20.25;;;;;;;;5096281;27;45332;-73
2022/03/09 03:14:06;;;;;;;;;19.50;18.75;;;;;;;;5095549;27;45680;-73
2022/03/09 03:16:32;;;;;;;;;20.25;17.75;;;;;;;;5095922;27;45301;-73
2022/03/09 03:18:57;;;;;;;;;17.75;16.00;;;;;;;;5095958;27;45592;-73
2022/03/09 03:21:22;;;;;;;;;20.00;18.25;;;;;;;;5095372;27;46993;-73
2022/03/09 03:23:47;;;;;;;;;18.25;15.00;;;;;;;;5096267;27;45406;-73
2022/03/09 03:26:13;;;;;;;;;17.00;16.25;;;;;;;;5095402;27;45428;-73
2022/03/09 03:28:38;;;;;;;;;22.75;18.25;;;;;;;;5094621;27;45396;-73
2022/03/09 03:31:04;;;;;;;;;16.00;15.25;;;;;;;;5095115;27;47229;-74
2022/03/09 03:33:29;;;;;;;;;18.00;17.00;;;;;;;;5095704;27;48090;-73
2022/03/09 03:35:54;;;;;;;;;16.75;16.75;;;;;;;;5096016;27;45488;-73
2022/03/09 03:38:20;;;;;;;;;19.75;17.50;;;;;;;;5095978;27;45369;-73
2022/03/09 03:40:45;;;;;;;;;17.75;17.75;;;;;;;;5095491;27;46136;-73
2022/03/09 03:43:11;;;;;;;;;16.50;16.50;;;;;;;;5095201;27;45404;-72
2022/03/09 03:45:36;;;;;;;;;19.50;17.50;;;;;;;;5095611;27;45493;-73
2022/03/09 03:48:01;;;;;;;;;18.50;16.75;;;;;;;;5095448;27;45470;-73
2022/03/09 03:50:27;;;;;;;;;17.00;16.00;;;;;;;;5095827;27;45516;-72
2022/03/09 03:52:53;;;;;;;;;19.50;18.25;;;;;;;;5094797;27;45409;-73
2022/03/09 03:55:18;;;;;;;;;19.00;17.75;;;;;;;;5095420;27;47353;-73
2022/03/09 03:57:44;;;;;;;;;17.75;17.00;;;;;;;;5095359;27;45372;-73
2022/03/09 04:00:10;;;;;;;;;15.25;15.25;;;;;;;;5094944;27;45453;-73
2022/03/09 04:02:36;;;;;;;;;17.25;16.00;;;;;;;;5096226;27;45319;-73
2022/03/09 04:05:01;;;;;;;;;18.50;17.50;;;;;;;;5095070;27;45447;-73
2022/03/09 04:07:26;;;;;;;;;19.25;17.50;;;;;;;;5095308;27;45289;-73
2022/03/09 04:09:51;;;;;;;;;14.50;12.75;;;;;;;;5094552;27;45273;-73
2022/03/09 04:12:17;;;;;;;;;18.25;17.00;;;;;;;;5094343;27;45286;-73
2022/03/09 04:14:42;;;;;;;;;18.50;15.75;;;;;;;;5096152;27;45370;-73
2022/03/09 04:17:07;;;;;;;;;15.50;15.50;;;;;;;;5095081;27;45428;-73
2022/03/09 04:19:32;;;;;;;;;16.00;16.00;;;;;;;;5094394;27;46102;-73
2022/03/09 04:21:57;;;;;;;;;18.00;17.25;;;;;;;;5094819;27;45249;-72
2022/03/09 04:24:23;;;;;;;;;18.00;17.50;;;;;;;;5095053;27;45637;-73
2022/03/09 04:26:48;;;;;;;;;18.00;17.00;;;;;;;;5095454;27;45290;-73
2022/03/09 04:29:13;;;;;;;;;19.00;18.00;;;;;;;;5093958;27;45456;-73
2022/03/09 04:31:39;;;;;;;;;17.50;17.25;;;;;;;;5094724;27;45409;-73
2022/03/09 04:34:04;;;;;;;;;20.25;18.25;;;;;;;;5094171;27;45300;-73
2022/03/09 04:36:29;;;;;;;;;19.00;15.75;;;;;;;;5094527;27;45316;-73
2022/03/09 04:38:55;;;;;;;;;16.00;16.00;;;;;;;;5095744;27;46856;-72
2022/03/09 04:41:20;;;;;;;;;20.25;18.50;;;;;;;;5095858;27;45349;-73
2022/03/09 04:43:46;;;;;;;;;19.50;18.75;;;;;;;;5092518;27;45445;-73
2022/03/09 04:46:11;;;;;;;;;19.00;17.50;;;;;;;;5088838;27;45570;-73
2022/03/09 04:48:36;;;;;;;;;19.25;16.25;;;;;;;;5097928;27;46202;-73
2022/03/09 04:51:02;;;;;;;;;16.50;15.75;;;;;;;;5098255;27;45365;-73
2022/03/09 04:53:28;;;;;;;;;19.25;15.75;;;;;;;;5098697;27;45330;-73
2022/03/09 04:55:54;;;;;;;;;15.50;15.50;;;;;;;;5097331;27;45412;-73
2022/03/09 04:58:19;;;;;;;;;17.00;15.00;;;;;;;;5097580;27;46562;-73
2022/03/09 05:00:44;;;;;;;;;16.00;16.00;;;;;;;;5097380;27;45290;-73
2022/03/09 05:03:10;;;;;;;;;20.00;18.50;;;;;;;;5081962;27;45346;-73
2022/03/09 05:05:35;;;;;;;;;17.00;15.00;;;;;;;;5098737;27;45341;-73
2022/03/09 05:08:00;;;;;;;;;15.50;15.25;;;;;;;;5097756;27;45535;-71
2022/03/09 05:10:25;;;;;;;;;15.50;14.00;;;;;;;;5097345;27;45333;-72
2022/03/09 05:12:50;;;;;;;;;19.00;17.25;;;;;;;;5097762;27;45295;-72
2022/03/09 05:15:16;;;;;;;;;15.00;14.25;;;;;;;;5097872;27;45501;-71
2022/03/09 05:17:42;;;;;;;;;18.75;17.00;;;;;;;;5098266;27;46530;-72
2022/03/09 05:20:07;;;;;;;;;17.75;16.00;;;;;;;;5097263;27;45610;-71
2022/03/09 05:22:33;;;;;;;;;16.25;16.25;;;;;;;;5098105;27;45525;-71
2022/03/09 05:24:58;;;;;;;;;14.75;14.75;;;;;;;;5096943;27;45517;-72
2022/03/09 05:27:27;;;;;;;;;17.25;16.50;;;;;;;;5097109;27;46318;-72
2022/03/09 05:29:52;;;;;;;;;15.25;15.25;;;;;;;;5094506;27;45548;-72
2022/03/09 05:32:17;;;;;;;;;18.25;16.25;;;;;;;;5097405;27;45336;-71
2022/03/09 05:34:43;;;;;;;;;16.00;16.00;;;;;;;;5097517;27;45393;-71
2022/03/09 05:37:08;;;;;;;;;18.75;16.00;;;;;;;;5097025;27;45989;-72
2022/03/09 05:39:33;;;;;;;;;12.50;12.50;;;;;;;;5096881;27;45494;-71
2022/03/09 05:41:58;;;;;;;;;14.50;13.75;;;;;;;;5097804;27;45354;-72
2022/03/09 05:44:23;;;;;;;;;16.75;12.25;;;;;;;;5097597;27;45452;-72
2022/03/09 05:46:50;;;;;;;;;16.50;15.50;;;;;;;;5096896;27;46110;-71
2022/03/09 05:49:15;;;;;;;;;16.75;16.50;;;;;;;;5097318;27;45472;-71
2022/03/09 05:51:40;;;;;;;;;17.50;16.25;;;;;;;;5096991;27;45405;-72
2022/03/09 05:54:05;;;;;;;;;14.00;13.50;;;;;;;;5097069;27;45567;-71
2022/03/09 05:56:30;;;;;;;;;16.00;15.00;;;;;;;;5097515;27;46032;-72
2022/03/09 05:58:56;;;;;;;;;18.00;15.75;;;;;;;;5096900;27;45297;-71
2022/03/09 06:01:21;;;;;;;;;15.50;15.50;;;;;;;;5097166;27;45457;-71
2022/03/09 06:03:46;;;;;;;;;17.25;16.50;;;;;;;;5096627;27;45338;-70
2022/03/09 06:06:12;;;;;;;;;16.00;15.00;;;;;;;;5096485;27;45369;-71
2022/03/09 06:08:37;;;;;;;;;18.00;16.00;;;;;;;;5077929;27;45275;-72
2022/03/09 06:11:02;;;;;;;;;12.25;12.00;;;;;;;;5096652;27;45349;-71
2022/03/09 06:13:27;;;;;;;;;15.25;13.75;;;;;;;;5096760;27;45276;-71
2022/03/09 06:15:52;;;;;;;;;17.00;15.50;;;;;;;;5092685;27;45999;-71
2022/03/09 06:18:18;;;;;;;;;16.50;16.00;;;;;;;;5096239;27;45424;-71
2022/03/09 06:20:43;;;;;;;;;15.00;14.25;;;;;;;;5097444;27;45453;-70
2022/03/09 06:23:08;;;;;;;;;15.00;14.50;;;;;;;;5095870;27;45382;-71
2022/03/09 06:25:34;;;;;;;;;15.50;14.50;;;;;;;;5096283;27;47337;-71
2022/03/09 06:28:00;;;;;;;;;15.25;13.75;;;;;;;;5096151;27;45611;-71
2022/03/09 06:30:25;;;;;;;;;14.50;13.00;;;;;;;;5096556;27;45292;-71
2022/03/09 06:32:50;;;;;;;;;16.00;14.75;;;;;;;;5097438;27;45377;-71
2022/03/09 06:35:16;;;;;;;;;15.50;14.00;;;;;;;;5096346;27;45412;-72
2022/03/09 06:37:41;;;;;;;;;14.00;13.00;;;;;;;;5096085;27;45339;-71
2022/03/09 06:40:07;;;;;;;;;15.50;15.25;;;;;;;;5096520;27;45374;-72
2022/03/09 06:42:32;;;;;;;;;14.25;14.00;;;;;;;;5096345;27;45485;-71
2022/03/09 06:44:57;;;;;;;;;14.75;13.25;;;;;;;;5096198;27;45346;-71
2022/03/09 06:47:23;;;;;;;;;17.50;15.25;;;;;;;;5096724;27;45322;-71
2022/03/09 06:49:48;;;;;;;;;19.00;14.25;;;;;;;;5095927;27;45491;-71
2022/03/09 06:52:13;;;;;;;;;15.50;13.00;;;;;;;;5095331;27;45387;-72
2022/03/09 06:54:39;;;;;;;;;14.00;12.75;;;;;;;;5095936;27;47102;-72
2022/03/09 06:57:04;;;;;;;;;17.25;14.00;;;;;;;;5096077;27;46465;-72
2022/03/09 06:59:29;;;;;;;;;13.00;13.00;;;;;;;;5065677;28;45325;-72
2022/03/09 07:01:55;;;;;;;;;13.50;13.50;;;;;;;;5092228;27;45531;-72
2022/03/09 07:04:20;;;;;;;;;12.50;12.00;;;;;;;;5094480;27;45882;-72
2022/03/09 07:06:45;;;;;;;;;11.25;11.25;;;;;;;;5095556;27;45210;-71
2022/03/09 07:09:10;;;;;;;;;12.50;12.50;;;;;;;;5096058;27;45245;-71
2022/03/09 07:11:35;;;;;;;;;11.25;11.25;;;;;;;;5097112;27;45244;-71
2022/03/09 07:14:01;;;;;;;;;12.50;12.25;;;;;;;;5095243;27;47101;-71
2022/03/09 07:16:26;;;;;;;;;12.00;12.00;;;;;;;;5095456;27;45861;-69
2022/03/09 07:18:51;;;;;;;;;11.00;8.75;;;;;;;;5095418;27;45438;-71
2022/03/09 07:21:16;;;;;;;;;9.50;9.50;;;;;;;;5086524;27;45587;-71
2022/03/09 07:23:42;;;;;;;;;12.50;11.50;;;;;;;;5095371;27;46130;-69
2022/03/09 07:26:07;;;;;;;;;12.75;12.75;;;;;;;;5095689;27;45523;-69
2022/03/09 07:28:32;;;;;;;;;13.75;13.75;;;;;;;;5094778;27;45689;-69
2022/03/09 07:30:58;;;;;;;;;12.75;11.25;;;;;;;;5094945;27;45314;-69
2022/03/09 07:33:23;;;;;;;;;11.00;10.50;;;;;;;;5094209;27;47060;-70
2022/03/09 07:35:48;;;;;;;;;12.50;12.50;;;;;;;;5095829;27;45511;-71
2022/03/09 07:38:14;;;;;;;;;12.50;12.50;;;;;;;;5095230;27;45276;-69
2022/03/09 07:40:39;;;;;;;;;14.25;13.00;;;;;;;;5094622;27;45319;-70
2022/03/09 07:43:04;;;;;;;;;11.25;10.50;;;;;;;;5094751;27;47379;-70
2022/03/09 07:45:30;;;;;;;;;11.00;11.00;;;;;;;;5094773;27;45395;-70
2022/03/09 07:47:56;;;;;;;;;12.25;12.25;;;;;;;;5095174;27;45533;-70
2022/03/09 07:50:22;;;;;;;;;12.25;12.25;;;;;;;;5094452;27;45501;-70
2022/03/09 07:52:47;;;;;;;;;13.25;12.00;;;;;;;;5093575;27;46165;-69
2022/03/09 07:55:12;;;;;;;;;10.25;9.00;;;;;;;;5094802;27;45561;-74
2022/03/09 07:57:37;;;;;;;;;11.25;11.25;;;;;;;;5091627;27;45504;-71
2022/03/09 08:00:03;;;;;;;;;10.50;9.25;;;;;;;;5092451;27;45472;-72
2022/03/09 08:02:28;;;;;;;;;9.00;9.00;;;;;;;;5095591;27;46601;-71
2022/03/09 08:04:54;;;;;;;;;10.50;8.75;;;;;;;;5094673;27;45425;-71
2022/03/09 08:07:19;;;;;;;;;9.25;9.25;;;;;;;;5094578;27;45481;-72
2022/03/09 08:09:44;;;;;;;;;10.75;10.00;;;;;;;;5094921;27;46479;-72
2022/03/09 08:12:11;;;;;;;;;10.50;9.25;;;;;;;;5095013;27;47120;-71
2022/03/09 08:14:36;;;;;;;;;11.75;11.00;;;;;;;;5095842;27;45404;-72
2022/03/09 08:17:02;;;;;;;;;11.75;8.75;;;;;;;;5096892;27;45390;-72
2022/03/09 08:19:28;;;;;;;;;9.00;9.00;;;;;;;;5097986;27;45476;-72
2022/03/09 08:21:53;;;;;;;;;11.00;11.00;;;;;;;;5094804;27;45962;-72
2022/03/09 08:24:18;;;;;;;;;10.00;10.00;;;;;;;;5097796;27;45330;-72
2022/03/09 08:26:43;;;;;;;;;10.00;10.00;;;;;;;;5066464;28;45387;-72
2022/03/09 08:29:09;;;;;;;;;11.00;11.00;;;;;;;;5096298;27;45248;-72
2022/03/09 08:31:34;;;;;;;;;12.25;9.00;;;;;;;;5098005;27;47474;-72
2022/03/09 08:33:59;;;;;;;;;12.75;10.00;;;;;;;;5098008;27;45372;-72
2022/03/09 08:36:24;;;;;;;;;11.75;10.75;;;;;;;;5098721;27;45482;-72
2022/03/09 08:38:49;;;;;;;;;7.75;7.50;;;;;;;;5099286;27;45438;-72
2022/03/09 08:41:15;;;;;;;;;10.50;9.00;;;;;;;;5098136;27;45472;-72
2022/03/09 08:43:40;;;;;;;;;9.25;9.25;;;;;;;;5098448;27;45430;-71
2022/03/09 08:46:05;;;;;;;;;9.75;8.25;;;;;;;;5097897;27;45402;-72
2022/03/09 08:48:31;;;;;;;;;9.00;8.00;;;;;;;;5098123;27;45299;-72
2022/03/09 08:50:56;;;;;;;;;10.50;8.00;;;;;;;;5098660;27;45595;-72
2022/03/09 08:53:22;;;;;;;;;8.50;8.25;;;;;;;;5097915;27;46006;-72
2022/03/09 08:55:47;;;;;;;;;10.00;9.50;;;;;;;;5098127;27;45390;-72
2022/03/09 08:58:12;;;;;;;;;10.25;9.75;;;;;;;;5093067;27;45326;-72
2022/03/09 09:00:38;;;;;;;;;10.00;10.00;;;;;;;;5097864;27;46605;-72
2022/03/09 09:03:03;;;;;;;;;11.00;9.75;;;;;;;;5097645;27;45371;-72
2022/03/09 09:05:28;;;;;;;;;9.00;8.75;;;;;;;;5098662;27;45341;-72
2022/03/09 09:07:54;;;;;;;;;9.50;9.50;;;;;;;;5097198;27;45448;-72
2022/03/09 09:10:19;;;;;;;;;10.00;9.00;;;;;;;;5097232;27;46115;-71
2022/03/09 09:12:46;;;;;;;;;8.00;7.50;;;;;;;;5097610;27;45986;-72
2022/03/09 09:15:11;;;;;;;;;8.00;8.00;;;;;;;;5097609;27;45529;-72
2022/03/09 09:17:37;;;;;;;;;9.00;7.00;;;;;;;;5098037;27;45351;-73
2022/03/09 09:20:02;;;;;;;;;8.50;8.50;;;;;;;;5097571;27;45978;-72
2022/03/09 09:22:28;;;;;;;;;8.00;7.00;;;;;;;;5097050;27;45561;-72
2022/03/09 09:24:53;;;;;;;;;7.25;7.25;;;;;;;;5097837;27;45411;-72
2022/03/09 09:27:19;;;;;;;;;10.25;7.50;;;;;;;;5096998;27;45599;-72
2022/03/09 09:29:45;;;;;;;;;8.25;6.00;;;;;;;;5098049;27;45395;-72
2022/03/09 09:32:10;;;;;;;;;7.50;5.50;;;;;;;;5092649;27;45512;-72
2022/03/09 09:34:35;;;;;;;;;6.00;6.00;;;;;;;;5097234;27;45530;-71
2022/03/09 09:37:02;;;;;;;;;8.00;8.00;;;;;;;;5097507;27;45419;-72
2022/03/09 09:39:27;;;;;;;;;8.75;8.00;;;;;;;;5097073;27;46358;-72
2022/03/09 09:41:53;;;;;;;;;6.50;6.50;;;;;;;;5098262;27;45448;-72
2022/03/09 09:44:20;;;;;;;;;9.00;7.50;;;;;;;;5072639;27;45366;-72
2022/03/09 09:46:45;;;;;;;;;6.25;6.25;;;;;;;;5096814;27;45519;-72
2022/03/09 09:49:12;;;;;;;;;8.25;7.00;;;;;;;;5096586;27;46482;-72
2022/03/09 09:51:39;;;;;;;;;9.75;7.25;;;;;;;;5096100;27;45305;-72
2022/03/09 09:54:07;;;;;;;;;9.75;7.00;;;;;;;;5096897;27;45382;-72
2022/03/09 09:56:38;;;;;;;;;10.25;9.00;;;;;;;;5097743;27;45465;-72
2022/03/09 09:59:04;;;;;;;;;8.25;7.25;;;;;;;;5096199;27;45967;-72
2022/03/09 10:01:29;;;;;;;;;6.50;6.50;;;;;;;;5097250;27;45581;-72
2022/03/09 10:03:54;;;;;;;;;7.00;7.00;;;;;;;;5097335;27;45520;-72
2022/03/09 10:06:20;;;;;;;;;8.00;8.00;;;;;;;;5079169;27;45369;-72
2022/03/09 10:09:03;;;;;;;;;8.25;7.25;;;;;;;;5097763;27;45298;-72
2022/03/09 10:11:49;;;;;;;;;7.50;7.25;;;;;;;;5096963;27;45493;-72
2022/03/09 10:14:15;;;;;;;;;5.75;5.75;;;;;;;;5096243;27;45353;-72
2022/03/09 10:16:59;;;;;;;;;6.50;6.50;;;;;;;;5096898;27;45460;-72
2022/03/09 10:19:31;;;;;;;;;6.00;6.00;;;;;;;;5096472;27;45988;-72
2022/03/09 10:21:56;;;;;;;;;6.50;6.50;;;;;;;;5084637;27;45503;-72
2022/03/09 10:24:32;;;;;;;;;7.00;7.00;;;;;;;;5095812;27;45531;-72
2022/03/09 10:27:00;;;;;;;;;10.50;5.75;;;;;;;;5093697;27;45330;-72
2022/03/09 10:29:26;;;;;;;;;6.00;6.00;;;;;;;;5063489;28;46232;-72
2022/03/09 10:31:51;;;;;;;;;7.00;7.00;;;;;;;;5092329;27;45542;-72
2022/03/09 10:34:16;;;;;;;;;9.25;7.00;;;;;;;;5096205;27;45443;-72
2022/03/09 10:36:54;;;;;;;;;5.75;5.75;;;;;;;;5096601;27;45634;-72
2022/03/09 10:39:20;;;;;;;;;6.00;6.00;;;;;;;;5095248;27;46417;-72
2022/03/09 10:41:45;;;;;;;;;9.00;7.00;;;;;;;;5096716;27;45401;-72
2022/03/09 10:44:11;;;;;;;;;6.75;6.00;;;;;;;;5096150;27;46036;-72
2022/03/09 10:46:50;;;;;;;;;6.00;6.00;;;;;;;;5096154;27;49264;-72
2022/03/09 10:49:19;;;;;;;;;5.00;4.00;;;;;;;;5095895;27;46022;-72
2022/03/09 10:51:48;;;;;;;;;5.25;5.25;;;;;;;;5095312;27;45365;-72
2022/03/09 10:54:20;;;;;;;;;5.50;4.00;;;;;;;;5095718;27;45341;-72
2022/03/09 10:56:45;;;;;;;;;5.00;5.00;;;;;;;;5073508;27;45505;-72
2022/03/09 10:59:12;;;;;;;;;6.50;6.25;;;;;;;;5096114;27;46087;-73
2022/03/09 11:01:38;;;;;;;;;6.00;6.00;;;;;;;;5096253;27;45341;-72
2022/03/09 11:04:17;;;;;;;;;9.25;7.00;;;;;;;;5095530;27;45440;-72
2022/03/09 11:06:48;;;;;;;;;5.25;5.25;;;;;;;;5095457;27;45501;-74
2022/03/09 11:09:14;;;;;;;;;7.00;7.00;;;;;;;;5095859;27;46062;-72
2022/03/09 11:11:40;;;;;;;;;3.75;3.25;;;;;;;;5096230;27;45449;-72
2022/03/09 11:14:05;;;;;;;;;6.50;5.50;;;;;;;;5095774;27;45526;-74
2022/03/09 11:16:31;;;;;;;;;5.50;5.50;;;;;;;;5095099;27;45465;-72
2022/03/09 11:18:57;;;;;;;;;6.00;5.50;;;;;;;;5095550;27;45686;-72
2022/03/09 11:21:22;;;;;;;;;4.50;4.00;;;;;;;;5079328;27;45502;-72
2022/03/09 11:23:47;;;;;;;;;5.75;4.50;;;;;;;;5096694;27;45407;-71
2022/03/09 11:26:23;;;;;;;;;6.75;6.75;;;;;;;;5095632;27;45448;-74
2022/03/09 11:28:58;;;;;;;;;5.50;5.50;;;;;;;;5095444;27;46287;-72
2022/03/09 11:31:23;;;;;;;;;4.00;4.00;;;;;;;;5091638;27;45471;-72
2022/03/09 11:33:50;;;;;;;;;6.50;5.75;;;;;;;;5082828;27;45392;-71
2022/03/09 11:36:35;;;;;;;;;6.50;6.50;;;;;;;;5095722;27;45451;-72
2022/03/09 11:39:03;;;;;;;;;5.00;5.00;;;;;;;;5091395;27;46292;-72
2022/03/09 11:41:31;;;;;;;;;5.00;5.00;;;;;;;;5094717;27;45332;-71
2022/03/09 11:44:16;;;;;;;;;6.00;6.00;;;;;;;;5095302;27;45433;-71
2022/03/09 11:46:56;;;;;;;;;5.75;5.75;;;;;;;;5082127;27;45440;-71
2022/03/09 11:49:22;;;;;;;;;4.25;4.25;;;;;;;;5094603;27;46646;-74
2022/03/09 11:52:04;;;;;;;;;4.25;4.25;;;;;;;;5094837;27;45572;-72
2022/03/09 11:54:40;;;;;;;;;4.00;4.00;;;;;;;;5095465;27;45326;-72
2022/03/09 11:57:07;;;;;;;;;3.50;3.50;;;;;;;;5078494;27;45305;-72
2022/03/09 11:59:32;;;;;;;;;5.50;4.50;;;;;;;;5094924;27;46162;-73
2022/03/09 12:01:58;;;;;;;;;6.00;5.25;;;;;;;;5094823;27;45485;-70
2022/03/09 12:04:46;;;;;;;;;7.75;5.25;;;;;;;;5094999;27;45753;-72
2022/03/09 12:07:13;;;;;;;;;5.00;5.00;;;;;;;;5086599;27;45488;-71
2022/03/09 12:09:57;;;;;;;;;4.75;4.75;;;;;;;;5094303;27;46370;-72
2022/03/09 12:12:22;;;;;;;;;5.50;4.75;;;;;;;;5094253;27;45490;-72
2022/03/09 12:15:00;;;;;;;;;5.00;5.00;;;;;;;;5095787;27;45353;-71
2022/03/09 12:17:28;;;;;;;;;6.25;5.25;;;;;;;;5095027;27;45444;-72
2022/03/09 12:20:36;;;;;;;;;5.25;5.25;;;;;;;;5094256;27;47039;-72
2022/03/09 12:23:03;;;;;;;;;5.00;4.75;;;;;;;;5031592;28;45437;-71
2022/03/09 12:25:40;;;;;;;;;5.75;5.75;;;;;;;;5031569;28;45405;-71
2022/03/09 12:28:23;;;;;;;;;4.75;4.25;;;;;;;;5031776;28;45618;-71
2022/03/09 12:30:51;;;;;;;;;6.25;5.00;;;;;;;;5031735;28;45470;-72
2022/03/09 12:33:28;;;;;;;;;4.00;3.25;;;;;;;;5031373;28;45465;-72
2022/03/09 12:36:02;;;;;;;;;7.00;5.00;;;;;;;;5016203;28;45407;-75
2022/03/09 12:38:34;;;;;;;;;5.25;4.00;;;;;;;;5031987;28;45486;-78
2022/03/09 12:40:59;;;;;;;;;8.75;6.00;;;;;;;;5032568;28;46087;-78
2022/03/09 12:43:26;;;;;;;;;5.00;3.75;;;;;;;;5032385;28;45438;-78
2022/03/09 12:45:52;;;;;;;;;10.00;6.50;;;;;;;;5037562;28;45377;-78
2022/03/09 12:48:21;;;;;;;;;5.00;4.25;;;;;;;;5035832;28;45262;-78
2022/03/09 12:50:47;;;;;;;;;4.75;4.75;;;;;;;;5022654;28;47204;-78
2022/03/09 12:53:17;;;;;;;;;5.00;5.00;;;;;;;;5051874;27;45336;-78
2022/03/09 12:55:42;;;;;;;;;4.00;4.00;;;;;;;;5099746;27;45464;-78
2022/03/09 12:58:08;;;;;;;;;6.50;5.50;;;;;;;;5100799;27;45402;-78
2022/03/09 13:00:36;;;;;;;;;4.00;4.00;;;;;;;;5089244;27;46053;-78
2022/03/09 13:03:01;;;;;;;;;4.25;4.00;;;;;;;;5100947;27;45384;-78
2022/03/09 13:05:28;;;;;;;;;1.00;0.50;;;;;;;;5101830;27;45493;-78
2022/03/09 13:07:55;;;;;;;;;6.50;5.75;;;;;;;;5103398;27;45384;-78
2022/03/09 13:10:20;;;;;;;;;4.25;4.25;;;;;;;;5104047;27;47023;-78
2022/03/09 13:12:50;;;;;;;;;5.25;5.25;;;;;;;;5105639;27;45268;-78
2022/03/09 13:15:15;;;;;;;;;7.50;6.00;;;;;;;;5104827;27;45432;-78
2022/03/09 13:17:47;;;;;;;;;2.75;2.75;;;;;;;;5104167;27;45546;-78
2022/03/09 13:20:13;;;;;;;;;3.25;3.25;;;;;;;;5102948;27;45431;-78
2022/03/09 13:22:46;;;;;;;;;5.50;4.75;;;;;;;;5097255;27;45450;-78
2022/03/09 13:25:12;;;;;;;;;4.00;3.50;;;;;;;;5094111;27;45282;-78
2022/03/09 13:27:38;;;;;;;;;4.00;4.00;;;;;;;;5103665;27;45656;-78
2022/03/09 13:30:14;;;;;;;;;5.00;3.50;;;;;;;;5088350;27;46281;-78
2022/03/09 13:32:39;;;;;;;;;5.00;4.50;;;;;;;;5102408;27;45421;-78
2022/03/09 13:35:05;;;;;;;;;4.75;3.75;;;;;;;;5103810;27;45336;-78
2022/03/09 13:37:34;;;;;;;;;6.00;3.00;;;;;;;;5102511;27;45353;-78
2022/03/09 13:40:00;;;;;;;;;8.75;4.50;;;;;;;;5103823;27;46495;-78
2022/03/09 13:42:26;;;;;;;;;5.00;4.00;;;;;;;;5103986;27;45285;-78
2022/03/09 13:45:08;;;;;;;;;2.75;2.75;;;;;;;;5104390;27;45336;-78
2022/03/09 13:47:49;;;;;;;;;3.25;3.00;;;;;;;;5090448;27;45331;-78
2022/03/09 13:50:19;;;;;;;;;4.75;4.75;;;;;;;;5101995;27;47071;-78
2022/03/09 13:52:45;;;;;;;;;5.25;3.75;;;;;;;;5103351;27;45637;-78
2022/03/09 13:55:17;;;;;;;;;4.00;4.00;;;;;;;;5102827;27;45367;-78
2022/03/09 13:57:42;;;;;;;;;4.50;4.00;;;;;;;;5102730;27;45425;-78
2022/03/09 14:00:11;;;;;;;;;3.00;3.00;;;;;;;;5103510;27;46211;-78
2022/03/09 14:02:36;;;;;;;;;5.00;4.50;;;;;;;;5102736;27;45473;-78
2022/03/09 14:05:01;;;;;;;;;4.00;4.00;;;;;;;;5101829;27;45486;-78
2022/03/09 14:07:36;;;;;;;;;2.50;1.50;;;;;;;;5100609;27;45279;-78
2022/03/09 14:10:24;;;;;;;;;3.00;3.00;;;;;;;;5099683;27;45588;-78
2022/03/09 14:12:49;;;;;;;;;4.00;4.00;;;;;;;;5088951;27;45639;-78
2022/03/09 14:15:14;;;;;;;;;4.00;4.00;;;;;;;;5102567;27;45577;-78
2022/03/09 14:17:40;;;;;;;;;5.75;4.50;;;;;;;;5102880;27;45398;-78
2022/03/09 14:20:07;;;;;;;;;1.00;1.00;;;;;;;;5101971;27;45429;-78
2022/03/09 14:22:42;;;;;;;;;4.25;3.25;;;;;;;;5099401;27;45545;-78
2022/03/09 14:25:08;;;;;;;;;2.00;2.00;;;;;;;;5088061;27;45405;-78
2022/03/09 14:27:33;;;;;;;;;4.00;4.00;;;;;;;;5102429;27;45407;-78
2022/03/09 14:29:58;;;;;;;;;2.75;2.50;;;;;;;;5103226;27;46052;-78